sensor_id;sensor_type;location;lat;lon;timestamp;pressure;altitude;pressure_sealevel;temperature;humidity
20019;BME280;10170;42.502;26.526;2023-04-01T00:01:15;99009.53;;;11.21;100.00
20019;BME280;10170;42.502;26.526;2023-04-01T00:03:43;99022.91;;;11.15;100.00
20019;BME280;10170;42.502;26.526;2023-04-01T00:06:16;99020.09;;;11.10;100.00
20019;BME280;10170;42.502;26.526;2023-04-01T00:08:43;99005.31;;;10.84;100.00
20019;BME280;10170;42.502;26.526;2023-04-01T00:11:11;99007.16;;;10.66;100.00
20019;BME280;10170;42.502;26.526;2023-04-01T00:13:38;98998.44;;;10.58;100.00
20019;BME280;10170;42.502;26.526;2023-04-01T00:16:05;98996.84;;;10.33;100.00
20019;BME280;10170;42.502;26.526;2023-04-01T00:18:47;99002.53;;;10.36;100.00
20019;BME280;10170;42.502;26.526;2023-04-01T00:21:14;98987.50;;;10.30;100.00
20019;BME280;10170;42.502;26.526;2023-04-01T00:23:42;98997.56;;;10.46;100.00
20019;BME280;10170;42.502;26.526;2023-04-01T00:26:09;98997.47;;;10.53;100.00
20019;BME280;10170;42.502;26.526;2023-04-01T00:28:36;98998.53;;;10.52;100.00
20019;BME280;10170;42.502;26.526;2023-04-01T00:31:07;98996.06;;;10.50;100.00
20019;BME280;10170;42.502;26.526;2023-04-01T00:33:34;98995.31;;;10.43;100.00
20019;BME280;10170;42.502;26.526;2023-04-01T00:36:19;98946.25;;;10.03;100.00
20019;BME280;10170;42.502;26.526;2023-04-01T00:38:49;98992.56;;;10.14;100.00
20019;BME280;10170;42.502;26.526;2023-04-01T00:41:17;98998.31;;;10.11;100.00
20019;BME280;10170;42.502;26.526;2023-04-01T00:43:48;98974.50;;;9.98;100.00
20019;BME280;10170;42.502;26.526;2023-04-01T00:46:15;98985.06;;;10.04;100.00
20019;BME280;10170;42.502;26.526;2023-04-01T00:48:46;98978.34;;;10.02;100.00
20019;BME280;10170;42.502;26.526;2023-04-01T00:51:17;98959.38;;;9.98;100.00
20019;BME280;10170;42.502;26.526;2023-04-01T00:53:47;98956.09;;;9.78;100.00
20019;BME280;10170;42.502;26.526;2023-04-01T00:56:24;98952.03;;;9.76;100.00
20019;BME280;10170;42.502;26.526;2023-04-01T00:59:26;98939.63;;;9.70;100.00
20019;BME280;10170;42.502;26.526;2023-04-01T01:01:54;98932.78;;;9.55;100.00
20019;BME280;10170;42.502;26.526;2023-04-01T01:04:32;98943.97;;;9.64;100.00
20019;BME280;10170;42.502;26.526;2023-04-01T01:12:24;98942.00;;;9.53;100.00
20019;BME280;10170;42.502;26.526;2023-04-01T01:14:54;98948.75;;;9.24;100.00
20019;BME280;10170;42.502;26.526;2023-04-01T01:17:40;98945.66;;;9.27;100.00
20019;BME280;10170;42.502;26.526;2023-04-01T01:20:37;98945.28;;;9.24;100.00
20019;BME280;10170;42.502;26.526;2023-04-01T01:29:08;98951.34;;;9.62;100.00
20019;BME280;10170;42.502;26.526;2023-04-01T01:37:27;98935.84;;;9.03;100.00
20019;BME280;10170;42.502;26.526;2023-04-01T01:39:59;98929.16;;;8.94;100.00
20019;BME280;10170;42.502;26.526;2023-04-01T01:42:30;98926.06;;;8.97;100.00
20019;BME280;10170;42.502;26.526;2023-04-01T01:44:58;98913.06;;;8.89;100.00
20019;BME280;10170;42.502;26.526;2023-04-01T01:47:28;98920.63;;;9.17;100.00
20019;BME280;10170;42.502;26.526;2023-04-01T01:49:56;98914.94;;;9.13;100.00
20019;BME280;10170;42.502;26.526;2023-04-01T01:52:23;98913.75;;;9.09;100.00
20019;BME280;10170;42.502;26.526;2023-04-01T01:54:52;98907.91;;;9.32;100.00
20019;BME280;10170;42.502;26.526;2023-04-01T01:57:25;98900.66;;;9.14;100.00
20019;BME280;10170;42.502;26.526;2023-04-01T01:59:56;98899.66;;;9.09;100.00
20019;BME280;10170;42.502;26.526;2023-04-01T02:02:24;98900.84;;;9.19;100.00
20019;BME280;10170;42.502;26.526;2023-04-01T02:04:52;98894.97;;;9.11;100.00
20019;BME280;10170;42.502;26.526;2023-04-01T02:07:27;98889.34;;;9.25;100.00
20019;BME280;10170;42.502;26.526;2023-04-01T02:09:56;98887.09;;;9.29;100.00
20019;BME280;10170;42.502;26.526;2023-04-01T02:12:23;98886.53;;;9.20;100.00
20019;BME280;10170;42.502;26.526;2023-04-01T02:17:26;98888.59;;;9.18;100.00
20019;BME280;10170;42.502;26.526;2023-04-01T02:20:05;98891.22;;;9.25;100.00
20019;BME280;10170;42.502;26.526;2023-04-01T02:22:37;98899.94;;;9.32;100.00
20019;BME280;10170;42.502;26.526;2023-04-01T02:25:17;98902.38;;;9.33;100.00
20019;BME280;10170;42.502;26.526;2023-04-01T02:27:45;98915.56;;;9.40;100.00
20019;BME280;10170;42.502;26.526;2023-04-01T02:30:14;98912.75;;;9.35;100.00
20019;BME280;10170;42.502;26.526;2023-04-01T02:32:42;98919.78;;;9.23;100.00
20019;BME280;10170;42.502;26.526;2023-04-01T02:35:11;98915.91;;;8.88;100.00
20019;BME280;10170;42.502;26.526;2023-04-01T02:37:40;98920.09;;;8.71;100.00
20019;BME280;10170;42.502;26.526;2023-04-01T02:40:12;98916.25;;;8.67;100.00
20019;BME280;10170;42.502;26.526;2023-04-01T02:42:39;98909.50;;;8.64;100.00
20019;BME280;10170;42.502;26.526;2023-04-01T02:45:06;98916.81;;;8.75;100.00
20019;BME280;10170;42.502;26.526;2023-04-01T02:47:33;98914.53;;;8.79;100.00
20019;BME280;10170;42.502;26.526;2023-04-01T02:50:00;98907.63;;;8.78;100.00
20019;BME280;10170;42.502;26.526;2023-04-01T02:52:28;98906.41;;;8.74;100.00
20019;BME280;10170;42.502;26.526;2023-04-01T02:54:56;98901.19;;;8.61;100.00
20019;BME280;10170;42.502;26.526;2023-04-01T02:57:24;98895.16;;;8.47;100.00
20019;BME280;10170;42.502;26.526;2023-04-01T02:59:51;98890.06;;;8.39;100.00
20019;BME280;10170;42.502;26.526;2023-04-01T03:02:18;98863.22;;;8.29;100.00
20019;BME280;10170;42.502;26.526;2023-04-01T03:04:45;98874.94;;;8.52;100.00
20019;BME280;10170;42.502;26.526;2023-04-01T03:07:12;98868.94;;;8.70;100.00
20019;BME280;10170;42.502;26.526;2023-04-01T03:09:39;98858.78;;;8.67;100.00
20019;BME280;10170;42.502;26.526;2023-04-01T03:12:06;98863.47;;;8.65;100.00
20019;BME280;10170;42.502;26.526;2023-04-01T03:14:33;98862.03;;;8.63;100.00
20019;BME280;10170;42.502;26.526;2023-04-01T03:16:59;98867.59;;;8.86;100.00
20019;BME280;10170;42.502;26.526;2023-04-01T03:19:27;98870.69;;;8.83;100.00
20019;BME280;10170;42.502;26.526;2023-04-01T03:21:53;98860.91;;;8.83;100.00
20019;BME280;10170;42.502;26.526;2023-04-01T03:24:20;98869.47;;;8.85;100.00
20019;BME280;10170;42.502;26.526;2023-04-01T03:26:47;98871.34;;;8.78;100.00
20019;BME280;10170;42.502;26.526;2023-04-01T03:29:14;98866.72;;;8.67;100.00
20019;BME280;10170;42.502;26.526;2023-04-01T03:31:42;98878.47;;;8.40;100.00
20019;BME280;10170;42.502;26.526;2023-04-01T03:34:09;98858.44;;;8.50;100.00
20019;BME280;10170;42.502;26.526;2023-04-01T03:36:37;98847.69;;;8.39;100.00
20019;BME280;10170;42.502;26.526;2023-04-01T03:39:04;98865.63;;;8.43;100.00
20019;BME280;10170;42.502;26.526;2023-04-01T03:41:31;98873.69;;;8.62;100.00
20019;BME280;10170;42.502;26.526;2023-04-01T03:43:58;98874.91;;;8.59;100.00
20019;BME280;10170;42.502;26.526;2023-04-01T03:46:25;98870.75;;;8.70;100.00
20019;BME280;10170;42.502;26.526;2023-04-01T03:48:52;98866.16;;;8.59;100.00
20019;BME280;10170;42.502;26.526;2023-04-01T03:51:18;98867.59;;;8.55;100.00
20019;BME280;10170;42.502;26.526;2023-04-01T03:53:45;98862.78;;;8.38;100.00
20019;BME280;10170;42.502;26.526;2023-04-01T03:56:12;98868.31;;;8.30;100.00
20019;BME280;10170;42.502;26.526;2023-04-01T03:58:39;98878.94;;;8.24;100.00
20019;BME280;10170;42.502;26.526;2023-04-01T04:01:17;98871.41;;;8.14;100.00
20019;BME280;10170;42.502;26.526;2023-04-01T04:03:44;98865.31;;;8.07;100.00
20019;BME280;10170;42.502;26.526;2023-04-01T04:06:13;98863.75;;;7.93;100.00
20019;BME280;10170;42.502;26.526;2023-04-01T04:08:40;98867.81;;;7.96;100.00
20019;BME280;10170;42.502;26.526;2023-04-01T04:11:07;98863.50;;;8.08;100.00
20019;BME280;10170;42.502;26.526;2023-04-01T04:13:34;98867.13;;;8.13;100.00
20019;BME280;10170;42.502;26.526;2023-04-01T04:16:03;98850.06;;;8.03;100.00
20019;BME280;10170;42.502;26.526;2023-04-01T04:18:30;98860.81;;;8.27;100.00
20019;BME280;10170;42.502;26.526;2023-04-01T04:20:57;98865.50;;;8.12;100.00
20019;BME280;10170;42.502;26.526;2023-04-01T04:23:23;98852.34;;;7.86;100.00
20019;BME280;10170;42.502;26.526;2023-04-01T04:25:55;98846.63;;;7.89;100.00
20019;BME280;10170;42.502;26.526;2023-04-01T04:28:22;98851.69;;;8.04;100.00
20019;BME280;10170;42.502;26.526;2023-04-01T04:30:49;98850.06;;;7.96;100.00
20019;BME280;10170;42.502;26.526;2023-04-01T04:33:16;98851.56;;;7.79;100.00
20019;BME280;10170;42.502;26.526;2023-04-01T04:35:43;98841.81;;;7.67;100.00
20019;BME280;10170;42.502;26.526;2023-04-01T04:38:09;98836.63;;;8.04;100.00
20019;BME280;10170;42.502;26.526;2023-04-01T04:40:37;98836.44;;;7.99;100.00
20019;BME280;10170;42.502;26.526;2023-04-01T04:43:04;98832.16;;;8.05;100.00
20019;BME280;10170;42.502;26.526;2023-04-01T04:45:31;98828.19;;;8.27;100.00
20019;BME280;10170;42.502;26.526;2023-04-01T04:47:58;98823.00;;;8.45;100.00
20019;BME280;10170;42.502;26.526;2023-04-01T04:50:25;98831.84;;;8.32;100.00
20019;BME280;10170;42.502;26.526;2023-04-01T04:52:52;98828.09;;;8.53;100.00
20019;BME280;10170;42.502;26.526;2023-04-01T04:55:18;98832.56;;;8.52;100.00
20019;BME280;10170;42.502;26.526;2023-04-01T04:57:45;98839.28;;;8.86;100.00
20019;BME280;10170;42.502;26.526;2023-04-01T05:00:12;98836.25;;;9.07;100.00
20019;BME280;10170;42.502;26.526;2023-04-01T05:02:39;98823.97;;;9.13;100.00
20019;BME280;10170;42.502;26.526;2023-04-01T05:05:06;98813.00;;;9.09;100.00
20019;BME280;10170;42.502;26.526;2023-04-01T05:07:33;98808.66;;;9.15;100.00
20019;BME280;10170;42.502;26.526;2023-04-01T05:10:00;98809.56;;;8.78;100.00
20019;BME280;10170;42.502;26.526;2023-04-01T05:12:27;98801.84;;;8.76;100.00
20019;BME280;10170;42.502;26.526;2023-04-01T05:14:54;98798.84;;;8.66;100.00
20019;BME280;10170;42.502;26.526;2023-04-01T05:17:21;98801.00;;;8.76;100.00
20019;BME280;10170;42.502;26.526;2023-04-01T05:19:47;98768.28;;;8.64;100.00
20019;BME280;10170;42.502;26.526;2023-04-01T05:22:14;98802.06;;;9.24;100.00
20019;BME280;10170;42.502;26.526;2023-04-01T05:24:41;98793.69;;;9.45;100.00
20019;BME280;10170;42.502;26.526;2023-04-01T05:27:08;98803.91;;;9.66;100.00
20019;BME280;10170;42.502;26.526;2023-04-01T05:29:34;98813.03;;;9.70;100.00
20019;BME280;10170;42.502;26.526;2023-04-01T05:32:01;98822.09;;;9.81;100.00
20019;BME280;10170;42.502;26.526;2023-04-01T05:34:28;98813.34;;;9.80;100.00
20019;BME280;10170;42.502;26.526;2023-04-01T05:36:55;98826.16;;;9.65;100.00
20019;BME280;10170;42.502;26.526;2023-04-01T05:39:21;98825.91;;;9.67;100.00
20019;BME280;10170;42.502;26.526;2023-04-01T05:41:48;98808.44;;;9.59;100.00
20019;BME280;10170;42.502;26.526;2023-04-01T05:44:15;98805.41;;;9.74;100.00
20019;BME280;10170;42.502;26.526;2023-04-01T05:46:42;98817.22;;;9.59;100.00
20019;BME280;10170;42.502;26.526;2023-04-01T05:49:09;98815.50;;;9.47;100.00
20019;BME280;10170;42.502;26.526;2023-04-01T05:51:35;98818.38;;;9.45;100.00
20019;BME280;10170;42.502;26.526;2023-04-01T05:54:04;98817.75;;;9.50;100.00
20019;BME280;10170;42.502;26.526;2023-04-01T05:56:31;98813.38;;;9.37;100.00
20019;BME280;10170;42.502;26.526;2023-04-01T05:58:58;98805.88;;;9.71;100.00
20019;BME280;10170;42.502;26.526;2023-04-01T06:01:25;98804.19;;;9.94;100.00
20019;BME280;10170;42.502;26.526;2023-04-01T06:03:51;98799.03;;;10.17;100.00
20019;BME280;10170;42.502;26.526;2023-04-01T06:06:27;98789.53;;;10.39;100.00
20019;BME280;10170;42.502;26.526;2023-04-01T06:09:16;98786.25;;;10.67;100.00
20019;BME280;10170;42.502;26.526;2023-04-01T06:15:20;98777.78;;;11.23;100.00
20019;BME280;10170;42.502;26.526;2023-04-01T06:18:11;98768.63;;;11.53;100.00
20019;BME280;10170;42.502;26.526;2023-04-01T06:24:00;98786.88;;;12.81;100.00
20019;BME280;10170;42.502;26.526;2023-04-01T06:26:44;98785.94;;;13.36;100.00
20019;BME280;10170;42.502;26.526;2023-04-01T06:53:59;98795.41;;;13.44;100.00
20019;BME280;10170;42.502;26.526;2023-04-01T06:56:30;98779.81;;;13.74;100.00
20019;BME280;10170;42.502;26.526;2023-04-01T06:59:02;98785.31;;;13.29;100.00
20019;BME280;10170;42.502;26.526;2023-04-01T07:04:20;98778.03;;;13.63;100.00
20019;BME280;10170;42.502;26.526;2023-04-01T07:09:26;98771.84;;;14.22;100.00
20019;BME280;10170;42.502;26.526;2023-04-01T07:12:00;98777.38;;;14.91;100.00
20019;BME280;10170;42.502;26.526;2023-04-01T07:14:39;98784.25;;;15.13;100.00
20019;BME280;10170;42.502;26.526;2023-04-01T07:17:37;98796.31;;;14.57;100.00
20019;BME280;10170;42.502;26.526;2023-04-01T07:22:51;98772.19;;;14.52;100.00
20019;BME280;10170;42.502;26.526;2023-04-01T07:25:38;98780.56;;;14.34;100.00
20019;BME280;10170;42.502;26.526;2023-04-01T07:28:14;98783.19;;;14.29;100.00
20019;BME280;10170;42.502;26.526;2023-04-01T07:51:02;98765.06;;;16.20;100.00
20019;BME280;10170;42.502;26.526;2023-04-01T07:56:06;98756.06;;;16.51;100.00
20019;BME280;10170;42.502;26.526;2023-04-01T08:05:04;98755.16;;;16.30;100.00
20019;BME280;10170;42.502;26.526;2023-04-01T08:08:00;98747.66;;;16.32;100.00
20019;BME280;10170;42.502;26.526;2023-04-01T08:19:34;98740.13;;;16.29;100.00
20019;BME280;10170;42.502;26.526;2023-04-01T08:22:34;98737.81;;;16.63;100.00
20019;BME280;10170;42.502;26.526;2023-04-01T08:25:06;98729.50;;;16.90;100.00
20019;BME280;10170;42.502;26.526;2023-04-01T08:27:44;98733.28;;;16.94;100.00
20019;BME280;10170;42.502;26.526;2023-04-01T08:30:24;98726.25;;;17.28;100.00
20019;BME280;10170;42.502;26.526;2023-04-01T08:32:56;98721.69;;;17.33;100.00
20019;BME280;10170;42.502;26.526;2023-04-01T08:38:38;98716.44;;;17.77;100.00
20019;BME280;10170;42.502;26.526;2023-04-01T08:46:45;98686.75;;;19.42;100.00
20019;BME280;10170;42.502;26.526;2023-04-01T08:55:13;98686.69;;;18.95;100.00
20019;BME280;10170;42.502;26.526;2023-04-01T09:04:05;98662.19;;;19.43;96.29
20019;BME280;10170;42.502;26.526;2023-04-01T09:32:18;98625.56;;;20.03;93.84
20019;BME280;10170;42.502;26.526;2023-04-01T09:40:37;98608.78;;;20.43;93.73
20019;BME280;10170;42.502;26.526;2023-04-01T09:54:52;98587.34;;;20.79;88.11
20019;BME280;10170;42.502;26.526;2023-04-01T10:00:32;98575.34;;;20.39;100.00
20019;BME280;10170;42.502;26.526;2023-04-01T10:03:48;98581.25;;;20.41;97.07
20019;BME280;10170;42.502;26.526;2023-04-01T10:15:17;98546.66;;;19.92;100.00
20019;BME280;10170;42.502;26.526;2023-04-01T10:21:12;98543.28;;;19.63;100.00
20019;BME280;10170;42.502;26.526;2023-04-01T10:27:01;98532.16;;;19.70;100.00
20019;BME280;10170;42.502;26.526;2023-04-01T10:47:03;98484.41;;;19.52;100.00
20019;BME280;10170;42.502;26.526;2023-04-01T10:52:46;98468.81;;;20.00;100.00
20019;BME280;10170;42.502;26.526;2023-04-01T10:55:31;98467.50;;;20.29;100.00
20019;BME280;10170;42.502;26.526;2023-04-01T11:26:12;98395.63;;;20.20;100.00
20019;BME280;10170;42.502;26.526;2023-04-01T11:43:08;98388.81;;;20.76;100.00
20019;BME280;10170;42.502;26.526;2023-04-01T11:46:02;98386.09;;;20.76;100.00
20019;BME280;10170;42.502;26.526;2023-04-01T11:57:10;98350.53;;;21.54;100.00
20019;BME280;10170;42.502;26.526;2023-04-01T12:02:28;98368.78;;;21.71;85.96
20019;BME280;10170;42.502;26.526;2023-04-01T12:19:20;98336.06;;;21.37;66.78
20019;BME280;10170;42.502;26.526;2023-04-01T12:28:03;98307.63;;;21.17;65.27
20019;BME280;10170;42.502;26.526;2023-04-01T12:30:55;98314.97;;;21.17;65.62
20019;BME280;10170;42.502;26.526;2023-04-01T12:35:55;98315.53;;;20.91;66.18
20019;BME280;10170;42.502;26.526;2023-04-01T12:38:31;98320.34;;;20.81;66.68
20019;BME280;10170;42.502;26.526;2023-04-01T12:55:52;98291.19;;;20.15;69.20
20019;BME280;10170;42.502;26.526;2023-04-01T13:12:45;98290.03;;;20.21;70.34
20019;BME280;10170;42.502;26.526;2023-04-01T13:24:12;98281.41;;;20.46;72.54
20019;BME280;10170;42.502;26.526;2023-04-01T13:26:34;98266.03;;;20.33;78.49
20019;BME280;10170;42.502;26.526;2023-04-01T13:29:16;98275.63;;;20.12;84.54
20019;BME280;10170;42.502;26.526;2023-04-01T13:35:05;98265.63;;;20.13;93.04
20019;BME280;10170;42.502;26.526;2023-04-01T13:43:42;98251.34;;;22.20;76.26
20019;BME280;10170;42.502;26.526;2023-04-01T13:49:08;98236.13;;;22.49;70.90
20019;BME280;10170;42.502;26.526;2023-04-01T14:14:16;98206.94;;;21.42;69.51
20019;BME280;10170;42.502;26.526;2023-04-01T14:31:18;98170.53;;;19.66;82.42
20019;BME280;10170;42.502;26.526;2023-04-01T14:41:47;98156.91;;;19.85;83.63
20019;BME280;10170;42.502;26.526;2023-04-01T14:44:28;98147.94;;;19.89;83.62
20019;BME280;10170;42.502;26.526;2023-04-01T14:47:34;98132.38;;;19.73;83.70
20019;BME280;10170;42.502;26.526;2023-04-01T14:50:11;98120.41;;;19.52;86.27
20019;BME280;10170;42.502;26.526;2023-04-01T14:52:43;98129.56;;;19.51;87.09
20019;BME280;10170;42.502;26.526;2023-04-01T14:55:26;98108.00;;;19.51;88.72
20019;BME280;10170;42.502;26.526;2023-04-01T14:58:12;98118.69;;;19.42;90.63
20019;BME280;10170;42.502;26.526;2023-04-01T15:16:47;98127.47;;;19.34;88.76
20019;BME280;10170;42.502;26.526;2023-04-01T15:28:34;98139.25;;;19.65;70.86
20019;BME280;10170;42.502;26.526;2023-04-01T15:33:48;98136.38;;;19.48;72.50
20019;BME280;10170;42.502;26.526;2023-04-01T15:39:16;98133.00;;;19.43;74.07
20019;BME280;10170;42.502;26.526;2023-04-01T15:44:58;98135.28;;;19.36;71.08
20019;BME280;10170;42.502;26.526;2023-04-01T15:47:34;98140.31;;;19.24;71.03
20019;BME280;10170;42.502;26.526;2023-04-01T15:55:59;98146.09;;;19.17;72.27
20019;BME280;10170;42.502;26.526;2023-04-01T16:01:28;98168.84;;;19.11;72.53
20019;BME280;10170;42.502;26.526;2023-04-01T16:04:14;98162.28;;;19.04;73.15
20019;BME280;10170;42.502;26.526;2023-04-01T16:06:50;98151.91;;;19.11;73.74
20019;BME280;10170;42.502;26.526;2023-04-01T16:09:25;98154.56;;;18.97;74.47
20019;BME280;10170;42.502;26.526;2023-04-01T16:11:57;98137.16;;;18.89;75.55
20019;BME280;10170;42.502;26.526;2023-04-01T16:23:12;98159.09;;;18.51;88.95
20019;BME280;10170;42.502;26.526;2023-04-01T16:25:47;98176.84;;;18.33;92.25
20019;BME280;10170;42.502;26.526;2023-04-01T16:31:15;98231.72;;;17.43;100.00
20019;BME280;10170;42.502;26.526;2023-04-01T16:34:01;98239.53;;;15.85;100.00
20019;BME280;10170;42.502;26.526;2023-04-01T16:39:40;98229.19;;;14.47;100.00
20019;BME280;10170;42.502;26.526;2023-04-01T16:47:30;98205.19;;;13.24;100.00
20019;BME280;10170;42.502;26.526;2023-04-01T16:53:08;98184.44;;;12.94;100.00
20019;BME280;10170;42.502;26.526;2023-04-01T16:55:46;98183.34;;;12.95;100.00
20019;BME280;10170;42.502;26.526;2023-04-01T16:58:36;98184.38;;;12.89;100.00
20019;BME280;10170;42.502;26.526;2023-04-01T17:01:12;98179.09;;;12.94;100.00
20019;BME280;10170;42.502;26.526;2023-04-01T17:03:49;98190.84;;;12.98;100.00
20019;BME280;10170;42.502;26.526;2023-04-01T17:06:31;98205.78;;;12.99;100.00
20019;BME280;10170;42.502;26.526;2023-04-01T17:11:55;98219.63;;;13.28;100.00
20019;BME280;10170;42.502;26.526;2023-04-01T17:14:35;98229.38;;;13.54;100.00
20019;BME280;10170;42.502;26.526;2023-04-01T17:30:39;98291.41;;;13.66;100.00
20019;BME280;10170;42.502;26.526;2023-04-01T17:38:59;98333.69;;;13.79;100.00
20019;BME280;10170;42.502;26.526;2023-04-01T17:47:11;98381.34;;;13.92;100.00
20019;BME280;10170;42.502;26.526;2023-04-01T17:50:10;98396.38;;;14.08;100.00
20019;BME280;10170;42.502;26.526;2023-04-01T18:24:29;98427.00;;;13.54;100.00
20019;BME280;10170;42.502;26.526;2023-04-01T18:30:21;98422.44;;;13.49;100.00
20019;BME280;10170;42.502;26.526;2023-04-01T18:38:13;98409.84;;;13.50;100.00
20019;BME280;10170;42.502;26.526;2023-04-01T18:40:51;98403.50;;;13.56;100.00
20019;BME280;10170;42.502;26.526;2023-04-01T18:43:34;98402.38;;;13.47;100.00
20019;BME280;10170;42.502;26.526;2023-04-01T18:46:20;98418.31;;;13.37;100.00
20019;BME280;10170;42.502;26.526;2023-04-01T18:49:00;98396.41;;;13.35;100.00
20019;BME280;10170;42.502;26.526;2023-04-01T18:51:52;98420.16;;;13.36;100.00
20019;BME280;10170;42.502;26.526;2023-04-01T18:57:04;98427.31;;;13.31;100.00
20019;BME280;10170;42.502;26.526;2023-04-01T18:59:39;98427.88;;;13.33;100.00
20019;BME280;10170;42.502;26.526;2023-04-01T19:02:35;98429.19;;;13.30;100.00
20019;BME280;10170;42.502;26.526;2023-04-01T19:05:23;98434.78;;;13.29;100.00
20019;BME280;10170;42.502;26.526;2023-04-01T19:08:16;98418.50;;;13.30;100.00
20019;BME280;10170;42.502;26.526;2023-04-01T19:19:29;98400.91;;;13.34;100.00
20019;BME280;10170;42.502;26.526;2023-04-01T19:25:08;98416.00;;;13.50;100.00
20019;BME280;10170;42.502;26.526;2023-04-01T19:27:46;98421.31;;;13.45;100.00
20019;BME280;10170;42.502;26.526;2023-04-01T19:40:53;98429.84;;;13.42;100.00
20019;BME280;10170;42.502;26.526;2023-04-01T19:43:30;98440.34;;;13.54;100.00
20019;BME280;10170;42.502;26.526;2023-04-01T19:56:45;98449.16;;;13.54;100.00
20019;BME280;10170;42.502;26.526;2023-04-01T20:04:55;98497.53;;;13.58;100.00
20019;BME280;10170;42.502;26.526;2023-04-01T20:07:34;98492.63;;;13.50;100.00
20019;BME280;10170;42.502;26.526;2023-04-01T20:10:09;98493.41;;;13.45;100.00
20019;BME280;10170;42.502;26.526;2023-04-01T20:13:08;98488.31;;;13.44;100.00
20019;BME280;10170;42.502;26.526;2023-04-01T20:16:18;98470.19;;;13.19;100.00
20019;BME280;10170;42.502;26.526;2023-04-01T20:21:34;98445.97;;;13.26;100.00
20019;BME280;10170;42.502;26.526;2023-04-01T20:24:20;98443.69;;;13.13;100.00
20019;BME280;10170;42.502;26.526;2023-04-01T20:26:58;98453.69;;;13.01;100.00
20019;BME280;10170;42.502;26.526;2023-04-01T20:49:33;98429.03;;;12.45;100.00
20019;BME280;10170;42.502;26.526;2023-04-01T20:55:19;98424.06;;;12.54;100.00
20019;BME280;10170;42.502;26.526;2023-04-01T21:12:00;98461.91;;;12.34;100.00
20019;BME280;10170;42.502;26.526;2023-04-01T21:15:01;98472.19;;;12.26;100.00
20019;BME280;10170;42.502;26.526;2023-04-01T21:17:48;98474.06;;;12.25;100.00
20019;BME280;10170;42.502;26.526;2023-04-01T21:39:35;98495.81;;;12.01;100.00
20019;BME280;10170;42.502;26.526;2023-04-01T21:45:14;98486.03;;;11.90;100.00
20019;BME280;10170;42.502;26.526;2023-04-01T21:59:29;98508.41;;;11.72;100.00
20019;BME280;10170;42.502;26.526;2023-04-01T22:02:19;98511.16;;;11.94;100.00
20019;BME280;10170;42.502;26.526;2023-04-01T22:05:03;98512.97;;;11.77;100.00
20019;BME280;10170;42.502;26.526;2023-04-01T22:18:22;98537.59;;;11.84;100.00
20019;BME280;10170;42.502;26.526;2023-04-01T22:21:17;98544.88;;;11.60;100.00
20019;BME280;10170;42.502;26.526;2023-04-01T22:29:20;98542.34;;;11.65;100.00
20019;BME280;10170;42.502;26.526;2023-04-01T22:56:56;98556.38;;;11.21;100.00
20019;BME280;10170;42.502;26.526;2023-04-01T23:02:00;98567.59;;;11.23;100.00
20019;BME280;10170;42.502;26.526;2023-04-01T23:04:33;98552.34;;;11.18;100.00
20019;BME280;10170;42.502;26.526;2023-04-01T23:07:33;98558.91;;;11.27;100.00
20019;BME280;10170;42.502;26.526;2023-04-01T23:10:05;98576.31;;;11.07;100.00
20019;BME280;10170;42.502;26.526;2023-04-01T23:12:40;98572.16;;;10.99;100.00
20019;BME280;10170;42.502;26.526;2023-04-01T23:15:12;98571.84;;;10.84;100.00
20019;BME280;10170;42.502;26.526;2023-04-01T23:30:59;98593.72;;;10.51;100.00
20019;BME280;10170;42.502;26.526;2023-04-01T23:33:29;98597.72;;;10.31;100.00
20019;BME280;10170;42.502;26.526;2023-04-01T23:36:00;98604.91;;;10.30;100.00
20019;BME280;10170;42.502;26.526;2023-04-01T23:38:38;98608.28;;;10.37;100.00
20019;BME280;10170;42.502;26.526;2023-04-01T23:41:06;98598.94;;;10.05;100.00
20019;BME280;10170;42.502;26.526;2023-04-01T23:43:36;98603.38;;;10.11;100.00
20019;BME280;10170;42.502;26.526;2023-04-01T23:46:06;98598.63;;;10.13;100.00
20019;BME280;10170;42.502;26.526;2023-04-01T23:48:40;98600.13;;;10.09;100.00
20019;BME280;10170;42.502;26.526;2023-04-01T23:51:18;98597.66;;;9.96;100.00
20019;BME280;10170;42.502;26.526;2023-04-01T23:53:47;98603.41;;;9.82;100.00
20019;BME280;10170;42.502;26.526;2023-04-01T23:56:17;98594.06;;;9.61;100.00
20019;BME280;10170;42.502;26.526;2023-04-01T23:58:50;98607.22;;;9.56;100.00
